METAR Data
IDs: Format: Raw Decoded Include TAF

Data at: 2120 UTC 20 Nov 2018

K3T5 202115Z AUTO 01006KT 10SM CLR A3025 RMK AO2
K3T5 202055Z AUTO 36007KT 10SM CLR A3026 RMK AO2
K3T5 202035Z AUTO 03006KT 10SM CLR A3026 RMK AO2
K3T5 202015Z AUTO 35008KT 10SM CLR A3027 RMK AO2
K3T5 201955Z AUTO 01007KT 10SM CLR A3027 RMK AO2
K3T5 201935Z AUTO 35008KT 10SM CLR A3028 RMK AO2
K3T5 201915Z AUTO 36006KT 10SM CLR A3028 RMK AO2
K3T5 201855Z AUTO 01007KT 10SM CLR A3030 RMK AO2
K3T5 201815Z AUTO 02008KT 10SM CLR A3032 RMK AO2
K3T5 201755Z AUTO 02007KT 10SM CLR A3033 RMK AO2 60001
K3T5 201735Z AUTO 03007KT 10SM CLR A3034 RMK AO2
K3T5 201715Z AUTO 02009KT 10SM CLR 14/04 A3035 RMK AO2 T01370038
K3T5 201655Z AUTO 05007KT 030V090 10SM CLR A3036 RMK AO2 P0001
K3T5 201635Z AUTO 02007KT 10SM CLR A3036 RMK AO2 P0001
K3T5 201615Z AUTO 04004KT 10SM CLR 12/04 A3036 RMK AO2 T01240042
K3T5 201555Z AUTO 02008KT 10SM CLR A3036 RMK AO2
K3T5 201535Z AUTO 02007KT 10SM CLR 11/04 A3035 RMK AO2 T01050040
K3T5 201355Z AUTO 36003KT 10SM CLR A3032 RMK AO2
K3T5 201335Z AUTO 35003KT 10SM CLR 06/03 A3031 RMK AO2 T00610034
K3T5 201315Z AUTO 36003KT 10SM CLR 06/03 A3030 RMK AO2 T00590033
K3T5 201255Z AUTO 35003KT 10SM CLR 06/03 A3029 RMK AO2 T00580032
K3T5 201235Z AUTO 36003KT 10SM CLR 06/04 A3028 RMK AO2 T00620035
K3T5 201215Z AUTO 36003KT 10SM CLR 06/04 A3027 RMK AO2 T00630036
K3T5 201155Z AUTO 00000KT 10SM CLR 06/04 A3027 RMK AO2 70002 T00570039
K3T5 201135Z AUTO 00000KT 10SM CLR 06/04 A3026 RMK AO2 T00600039
K3T5 201115Z AUTO 00000KT 10SM CLR A3025 RMK AO2
K3T5 201055Z AUTO 34004KT 10SM CLR 07/04 A3025 RMK AO2 T00720040
K3T5 201035Z AUTO 35004KT 10SM CLR A3025 RMK AO2
K3T5 201015Z AUTO 35004KT 10SM CLR 08/04 A3025 RMK AO2 T00800040
K3T5 200955Z AUTO 36004KT 10SM CLR 09/04 A3024 RMK AO2 T00850040
K3T5 200935Z AUTO 36005KT 10SM CLR 09/04 A3025 RMK AO2 T00900040
K3T5 200915Z AUTO 36005KT 10SM SCT040 A3024 RMK AO2
K3T5 200855Z AUTO 01005KT 10SM OVC042 A3023 RMK AO2
K3T5 200835Z AUTO 01007KT 10SM OVC042 A3024 RMK AO2
K3T5 200815Z AUTO 36006KT 10SM OVC044 A3024 RMK AO2
K3T5 200755Z AUTO 01004KT 10SM OVC046 A3024 RMK AO2
K3T5 200735Z AUTO 01003KT 10SM OVC046 A3023 RMK AO2
K3T5 200715Z AUTO 00000KT 10SM OVC048 A3023 RMK AO2
K3T5 200655Z AUTO 00000KT 10SM OVC048 A3022 RMK AO2
K3T5 200635Z AUTO 00000KT 10SM OVC050 11/06 A3022 RMK AO2 T01050056
K3T5 200615Z AUTO 01004KT 10SM SCT043 OVC050 11/06 A3022 RMK AO2 T01060056
K3T5 200555Z AUTO 36003KT 10SM SCT032 BKN043 OVC050 11/06 A3023 RMK AO2 60001 T01060055
K3T5 200535Z AUTO 36004KT 10SM SCT032 BKN043 OVC050 A3023 RMK AO2
K3T5 200515Z AUTO 36005KT 10SM BKN043 OVC050 A3022 RMK AO2
K3T5 200455Z AUTO 36005KT 10SM SCT029 BKN043 OVC050 10/06 A3022 RMK AO2 T01040057
K3T5 200435Z AUTO 35004KT 10SM SCT029 OVC043 10/06 A3022 RMK AO2 T01040056
K3T5 200415Z AUTO 36003KT 10SM OVC043 A3022 RMK AO2
K3T5 200355Z AUTO 36005KT 10SM OVC043 A3020 RMK AO2 P0001
K3T5 200335Z AUTO 35005KT 10SM OVC043 A3021 RMK AO2 P0001
K3T5 200315Z AUTO 36005KT 10SM OVC043 A3020 RMK AO2
K3T5 200255Z AUTO 35004KT 10SM SCT026 OVC043 A3020 RMK AO2
K3T5 200235Z AUTO 36004KT 10SM SCT025 OVC043 10/06 A3020 RMK AO2 T01010060
K3T5 200215Z AUTO 35005KT 10SM SCT025 OVC045 A3019 RMK AO2
K3T5 200155Z AUTO 34004KT 10SM BKN025 OVC045 A3019 RMK AO2
K3T5 200135Z AUTO 35003KT 10SM BKN025 OVC044 A3019 RMK AO2
K3T5 200115Z AUTO 36003KT 10SM SCT025 SCT037 OVC044 10/06 A3018 RMK AO2 T01000060
K3T5 200055Z AUTO 00000KT 10SM SCT025 SCT037 OVC046 10/06 A3017 RMK AO2 T00980061
K3T5 200035Z AUTO 00000KT 10SM SCT025 BKN041 OVC049 A3016 RMK AO2
K3T5 200015Z AUTO 36003KT 10SM SCT025 BKN041 OVC049 10/06 A3015 RMK AO2 T00990060
K3T5 192355Z AUTO 02004KT 10SM SCT023 BKN040 BKN049 A3014 RMK AO2
K3T5 192335Z AUTO 36003KT 10SM BKN023 OVC035 A3015 RMK AO2
K3T5 192315Z AUTO 36003KT 10SM OVC035 A3014 RMK AO2
K3T5 192255Z AUTO 35006KT 10SM SCT023 OVC035 A3014 RMK AO2
K3T5 192235Z AUTO 36003KT 10SM SCT023 OVC033 A3014 RMK AO2
K3T5 192215Z AUTO 01006KT 10SM BKN021 OVC033 A3013 RMK AO2
K3T5 192155Z AUTO 36006KT 10SM OVC021 A3014 RMK AO2
K3T5 192135Z AUTO 36004KT 10SM OVC021 A3014 RMK AO2
K3T5 192115Z AUTO 36004KT 10SM BKN021 BKN027 OVC033 10/06 A3013 RMK AO2 T01010061
K3T5 192055Z AUTO 01006KT 10SM BKN023 OVC033 A3013 RMK AO2
K3T5 192035Z AUTO 01005KT 10SM -DZ BKN023 OVC029 A3013 RMK AO2
K3T5 192015Z AUTO 36003KT 10SM OVC023 A3014 RMK AO2
K3T5 191955Z AUTO 36005KT 10SM DZ OVC023 09/06 A3014 RMK AO2 T00880056
K3T5 191935Z AUTO 35004KT 10SM OVC021 09/05 A3015 RMK AO2 T00870053
K3T5 191915Z AUTO 36005KT 10SM OVC021 A3015 RMK AO2
K3T5 191855Z AUTO 36005KT 10SM OVC021 08/05 A3017 RMK AO2 T00820049
K3T5 191835Z AUTO 36005KT 10SM OVC019 08/05 A3018 RMK AO2 T00820047
K3T5 191815Z AUTO 02008KT 10SM OVC019 08/05 A3019 RMK AO2 T00800051
K3T5 191755Z AUTO 02007KT 10SM OVC017 08/05 A3019 RMK AO2 60001 T00790048
K3T5 191735Z AUTO 01006KT 10SM OVC017 A3020 RMK AO2
K3T5 191715Z AUTO 01004KT 10SM OVC017 A3021 RMK AO2
K3T5 191615Z AUTO 36006KT 10SM OVC017 A3022 RMK AO2
K3T5 191555Z AUTO 01009KT 10SM OVC017 A3021 RMK AO2
K3T5 191535Z AUTO 02007KT 10SM OVC017 07/05 A3021 RMK AO2 T00690050
K3T5 191515Z AUTO 01005KT 10SM OVC017 A3021 RMK AO2
K3T5 191455Z AUTO 02007KT 10SM OVC017 06/05 A3022 RMK AO2 60001 T00620049
K3T5 191435Z AUTO 01007KT 10SM -DZ OVC017 A3020 RMK AO2
K3T5 191415Z AUTO 01007KT 10SM OVC015 A3020 RMK AO2
K3T5 191355Z AUTO 36007KT 10SM -RA SCT010 OVC015 A3020 RMK AO2
K3T5 191335Z AUTO 01009KT 10SM OVC010 A3019 RMK AO2
K3T5 191315Z AUTO 01007KT 330V030 7SM OVC010 A3019 RMK AO2
K3T5 191255Z AUTO 36005KT 5SM DZ OVC008 A3018 RMK AO2 P0001
K3T5 191235Z AUTO 36005KT 5SM DZ BKN010 OVC016 A3017 RMK AO2 LTG DSNT NE P0001
K3T5 191215Z AUTO 01006KT 7SM -DZ OVC010 A3017 RMK AO2 P0001
K3T5 191155Z AUTO 35005KT 7SM OVC010 A3017 RMK AO2
K3T5 191135Z AUTO 36007KT 7SM OVC010 A3016 RMK AO2
K3T5 191115Z AUTO 35006KT 5SM HZ OVC008 A3016 RMK AO2 LTG DSNT NE
K3T5 191055Z AUTO 35008KT 5SM VCTS HZ OVC006 A3016 RMK AO2 LTG DSNT NE
K3T5 191035Z AUTO 36004KT 5SM RA OVC008 A3016 RMK AO2
K3T5 191015Z AUTO 36005KT 2 1/2SM -RA OVC008 A3017 RMK AO2
K3T5 190955Z AUTO 36004KT 5SM DZ BKN008 OVC011 A3017 RMK AO2
K3T5 190935Z AUTO 01006KT 2 1/2SM -RA BKN008 OVC013 A3016 RMK AO2